Time;durP1;ratioP1;P1;durP2;ratioP2;P2;SDS_P1;SDS_P2;PMS_P1;PMS_P2;Temp;Humidity;BMP_temperature;BMP_pressure;BME280_temperature;BME280_humidity;BME280_pressure;Samples;Min_cycle;Max_cycle;Signal;HPM_P1;HPM_P2
2022/05/16 00:02:15;;;;;;;6.23;2.73;;;;;;;;;;4988396;28;20202;-73
2022/05/16 00:04:44;;;;;;;7.17;3.20;;;;;;;;;;4976643;28;20212;-74
2022/05/16 00:07:14;;;;;;;5.53;2.53;;;;;;;;;;4982404;28;20668;-74
2022/05/16 00:09:43;;;;;;;6.07;2.93;;;;;;;;;;4988272;28;20232;-74
2022/05/16 00:12:12;;;;;;;7.80;2.73;;;;;;;;;;4990452;28;20210;-73
2022/05/16 00:14:41;;;;;;;6.03;2.63;;;;;;;;;;4985414;28;20202;-74
2022/05/16 00:17:10;;;;;;;4.93;2.63;;;;;;;;;;4985687;28;20221;-75
2022/05/16 00:19:39;;;;;;;7.27;3.03;;;;;;;;;;4986679;28;20887;-74
2022/05/16 00:22:07;;;;;;;5.67;2.87;;;;;;;;;;4980734;28;20735;-73
2022/05/16 00:24:39;;;;;;;6.23;3.10;;;;;;;;;;4980679;28;20206;-73
2022/05/16 00:27:08;;;;;;;4.03;2.83;;;;;;;;;;4985564;28;20225;-72
2022/05/16 00:29:36;;;;;;;5.03;2.60;;;;;;;;;;4988296;28;20220;-73
2022/05/16 00:32:05;;;;;;;6.83;2.90;;;;;;;;;;4986436;28;20201;-74
2022/05/16 00:34:34;;;;;;;6.93;2.97;;;;;;;;;;4980075;28;20211;-75
2022/05/16 00:37:02;;;;;;;7.07;3.00;;;;;;;;;;4978957;28;20260;-73
2022/05/16 00:39:31;;;;;;;5.03;2.73;;;;;;;;;;4981639;28;20292;-74
2022/05/16 00:42:01;;;;;;;4.57;2.67;;;;;;;;;;4979660;28;20216;-74
2022/05/16 00:44:30;;;;;;;5.33;2.67;;;;;;;;;;4987700;28;20251;-75
2022/05/16 00:46:58;;;;;;;9.10;3.07;;;;;;;;;;4985528;28;20210;-74
2022/05/16 00:49:28;;;;;;;6.00;3.10;;;;;;;;;;4987999;28;20650;-73
2022/05/16 00:52:00;;;;;;;7.47;3.17;;;;;;;;;;4983520;28;20209;-73
2022/05/16 00:54:30;;;;;;;5.73;2.70;;;;;;;;;;4989744;28;20208;-74
2022/05/16 00:57:01;;;;;;;5.93;2.60;;;;;;;;;;4985807;28;20267;-75
2022/05/16 00:59:32;;;;;;;5.90;2.67;;;;;;;;;;4987169;28;20228;-74
2022/05/16 01:04:49;;;;;;;5.50;2.80;;;;;;;;;;4952309;28;20620;-73
2022/05/16 01:07:21;;;;;;;8.83;3.00;;;;;;;;;;4980940;28;20233;-74
2022/05/16 01:09:50;;;;;;;7.33;2.83;;;;;;;;;;4982943;28;20205;-73
2022/05/16 01:12:20;;;;;;;7.37;3.00;;;;;;;;;;4988582;28;20214;-74
2022/05/16 01:14:51;;;;;;;5.73;2.80;;;;;;;;;;4981570;28;20590;-73
2022/05/16 01:17:19;;;;;;;8.80;3.00;;;;;;;;;;4984327;28;20229;-74
2022/05/16 01:19:48;;;;;;;7.33;2.60;;;;;;;;;;4981288;28;20244;-74
2022/05/16 01:22:22;;;;;;;5.90;2.73;;;;;;;;;;4982851;28;20225;-73
2022/05/16 01:24:51;;;;;;;7.60;3.00;;;;;;;;;;4975879;28;20205;-73
2022/05/16 01:27:20;;;;;;;9.20;3.07;;;;;;;;;;4981003;28;20233;-73
2022/05/16 01:29:49;;;;;;;7.33;2.70;;;;;;;;;;4986795;28;20208;-74
2022/05/16 01:32:18;;;;;;;5.00;2.57;;;;;;;;;;4988160;28;20201;-73
2022/05/16 01:34:46;;;;;;;5.97;2.90;;;;;;;;;;4977272;28;20212;-74
2022/05/16 01:37:15;;;;;;;8.13;3.10;;;;;;;;;;4984205;28;20272;-74
2022/05/16 01:39:45;;;;;;;6.63;2.67;;;;;;;;;;4986318;28;20299;-73
2022/05/16 01:42:15;;;;;;;6.53;2.57;;;;;;;;;;4986517;28;20614;-73
2022/05/16 01:44:43;;;;;;;7.10;3.00;;;;;;;;;;4988894;28;20751;-74
2022/05/16 01:47:12;;;;;;;7.73;2.73;;;;;;;;;;4975550;28;20287;-73
2022/05/16 01:49:40;;;;;;;5.27;2.93;;;;;;;;;;4986199;28;20610;-74
2022/05/16 01:52:09;;;;;;;4.00;2.70;;;;;;;;;;4978209;28;20653;-72
2022/05/16 01:54:37;;;;;;;5.43;2.83;;;;;;;;;;4982136;28;20198;-74
2022/05/16 01:57:07;;;;;;;5.10;2.77;;;;;;;;;;4982972;28;20286;-73
2022/05/16 01:59:35;;;;;;;6.53;2.87;;;;;;;;;;4982667;28;20212;-74
2022/05/16 02:02:04;;;;;;;3.83;2.67;;;;;;;;;;4980356;28;20229;-74
2022/05/16 02:04:32;;;;;;;6.47;2.80;;;;;;;;;;4985632;28;20209;-73
2022/05/16 02:07:01;;;;;;;6.10;3.13;;;;;;;;;;4982108;28;20198;-73
2022/05/16 02:09:29;;;;;;;7.53;3.03;;;;;;;;;;4985042;28;20283;-74
2022/05/16 02:11:57;;;;;;;5.27;3.00;;;;;;;;;;4989470;28;20230;-74
2022/05/16 02:14:27;;;;;;;6.33;2.80;;;;;;;;;;4979885;28;20256;-74
2022/05/16 02:16:56;;;;;;;6.80;3.00;;;;;;;;;;4986239;28;20237;-74
2022/05/16 02:19:24;;;;;;;6.07;3.03;;;;;;;;;;4991029;28;20213;-73
2022/05/16 02:24:42;;;;;;;5.00;2.87;;;;;;;;;;4983075;28;20209;-73
2022/05/16 02:27:11;;;;;;;5.03;3.10;;;;;;;;;;4976592;28;20242;-75
2022/05/16 02:29:44;;;;;;;3.93;2.63;;;;;;;;;;4975647;28;20214;-73
2022/05/16 02:32:14;;;;;;;7.80;3.10;;;;;;;;;;4986196;28;20202;-73
2022/05/16 02:34:44;;;;;;;7.77;2.90;;;;;;;;;;4985765;28;20259;-75
2022/05/16 02:37:13;;;;;;;4.80;2.70;;;;;;;;;;4983684;28;20226;-73
2022/05/16 02:39:44;;;;;;;6.27;3.13;;;;;;;;;;4980635;28;20210;-73
2022/05/16 02:42:14;;;;;;;5.23;3.20;;;;;;;;;;4971807;28;20230;-73
2022/05/16 02:44:44;;;;;;;6.77;3.30;;;;;;;;;;4981026;28;20209;-73
2022/05/16 02:47:13;;;;;;;5.63;3.40;;;;;;;;;;4982887;28;20218;-73
2022/05/16 02:49:42;;;;;;;7.17;3.20;;;;;;;;;;4974281;28;20617;-74
2022/05/16 02:52:10;;;;;;;4.83;3.27;;;;;;;;;;4974299;28;20685;-73
2022/05/16 02:54:45;;;;;;;8.00;2.90;;;;;;;;;;4977187;28;20217;-73
2022/05/16 02:57:13;;;;;;;5.77;3.20;;;;;;;;;;4983716;28;20665;-73
2022/05/16 02:59:41;;;;;;;4.97;3.13;;;;;;;;;;4984493;28;20263;-73
2022/05/16 03:02:12;;;;;;;7.17;3.40;;;;;;;;;;4987918;28;20770;-73
2022/05/16 03:04:41;;;;;;;6.60;3.33;;;;;;;;;;4988512;28;20209;-74
2022/05/16 03:07:09;;;;;;;6.57;3.30;;;;;;;;;;4989564;28;20220;-74
2022/05/16 03:09:38;;;;;;;6.50;3.23;;;;;;;;;;4985504;28;20202;-73
2022/05/16 03:12:07;;;;;;;6.77;3.17;;;;;;;;;;4992343;28;20201;-73
2022/05/16 03:14:35;;;;;;;7.97;3.30;;;;;;;;;;4980832;28;20213;-74
2022/05/16 03:17:04;;;;;;;6.07;3.00;;;;;;;;;;4979956;28;20256;-74
2022/05/16 03:19:35;;;;;;;5.60;3.47;;;;;;;;;;4987096;28;20714;-73
2022/05/16 03:22:04;;;;;;;6.07;3.17;;;;;;;;;;4993219;28;20684;-74
2022/05/16 03:24:33;;;;;;;6.73;3.50;;;;;;;;;;4990749;28;20576;-74
2022/05/16 03:27:02;;;;;;;5.60;3.00;;;;;;;;;;4984019;28;20216;-73
2022/05/16 03:29:30;;;;;;;6.93;3.33;;;;;;;;;;4980444;28;20209;-74
2022/05/16 03:31:59;;;;;;;7.03;3.37;;;;;;;;;;4991184;28;20225;-74
2022/05/16 03:34:27;;;;;;;6.37;3.10;;;;;;;;;;4985297;28;20209;-74
2022/05/16 03:36:57;;;;;;;4.90;2.93;;;;;;;;;;4984535;28;20209;-73
2022/05/16 03:42:12;;;;;;;7.80;3.13;;;;;;;;;;4980813;28;20233;-72
2022/05/16 03:44:40;;;;;;;4.90;2.87;;;;;;;;;;4991593;28;20208;-73
2022/05/16 03:47:08;;;;;;;5.60;3.10;;;;;;;;;;4982534;28;20287;-73
2022/05/16 03:49:38;;;;;;;5.40;2.83;;;;;;;;;;4989326;28;20208;-74
2022/05/16 03:52:08;;;;;;;7.93;3.20;;;;;;;;;;4983189;28;20311;-74
2022/05/16 03:54:42;;;;;;;5.10;3.10;;;;;;;;;;4985187;28;20722;-72
2022/05/16 03:57:11;;;;;;;5.97;3.03;;;;;;;;;;4983043;28;20226;-73
2022/05/16 03:59:39;;;;;;;5.13;3.23;;;;;;;;;;4977712;28;20224;-75
2022/05/16 04:02:08;;;;;;;5.47;2.80;;;;;;;;;;4983781;28;20214;-73
2022/05/16 04:04:36;;;;;;;4.33;2.73;;;;;;;;;;4978936;28;20202;-73
2022/05/16 04:07:05;;;;;;;5.60;3.23;;;;;;;;;;4975399;28;20209;-74
2022/05/16 04:09:35;;;;;;;6.50;3.20;;;;;;;;;;4987087;28;20217;-73
2022/05/16 04:12:03;;;;;;;5.20;2.80;;;;;;;;;;4981202;28;20201;-73
2022/05/16 04:14:32;;;;;;;4.47;2.93;;;;;;;;;;4985274;28;20212;-73
2022/05/16 04:17:00;;;;;;;6.93;2.67;;;;;;;;;;4989693;28;20521;-73
2022/05/16 04:19:29;;;;;;;5.20;2.63;;;;;;;;;;4979986;28;20216;-74
2022/05/16 04:21:57;;;;;;;3.80;2.60;;;;;;;;;;4977475;28;20221;-72
2022/05/16 04:24:25;;;;;;;4.40;2.67;;;;;;;;;;4983174;28;20259;-73
2022/05/16 04:26:55;;;;;;;5.83;3.10;;;;;;;;;;4985615;28;20243;-73
2022/05/16 04:29:25;;;;;;;3.80;2.97;;;;;;;;;;4987383;28;20709;-73
2022/05/16 04:31:53;;;;;;;4.27;2.47;;;;;;;;;;4981431;28;20569;-73
2022/05/16 04:34:22;;;;;;;6.07;2.57;;;;;;;;;;4985775;28;20205;-72
2022/05/16 04:36:50;;;;;;;4.07;2.30;;;;;;;;;;4989672;28;20214;-73
2022/05/16 04:39:18;;;;;;;3.87;2.50;;;;;;;;;;4982752;28;20205;-74
2022/05/16 04:44:38;;;;;;;5.40;2.67;;;;;;;;;;4979013;28;20715;-74
2022/05/16 04:47:07;;;;;;;4.27;2.80;;;;;;;;;;4986799;28;20244;-73
2022/05/16 04:49:36;;;;;;;5.77;2.63;;;;;;;;;;4989213;28;20205;-73
2022/05/16 04:52:05;;;;;;;5.73;2.60;;;;;;;;;;4990162;28;20276;-72
2022/05/16 04:54:34;;;;;;;5.03;2.70;;;;;;;;;;4978490;28;20648;-72
2022/05/16 04:57:02;;;;;;;3.80;2.53;;;;;;;;;;4980604;28;20620;-73
2022/05/16 04:59:30;;;;;;;3.97;2.33;;;;;;;;;;4976305;28;20280;-72
2022/05/16 05:02:00;;;;;;;3.40;2.40;;;;;;;;;;4982167;28;20217;-73
2022/05/16 05:04:28;;;;;;;7.17;2.80;;;;;;;;;;4981257;28;20225;-73
2022/05/16 05:06:57;;;;;;;3.73;2.33;;;;;;;;;;4981924;28;20205;-73
2022/05/16 05:09:25;;;;;;;3.27;2.40;;;;;;;;;;4987761;28;20279;-73
2022/05/16 05:14:54;;;;;;;5.93;2.80;;;;;;;;;;4950958;29;20265;-72
2022/05/16 05:17:24;;;;;;;4.43;2.67;;;;;;;;;;4951205;28;20237;-72
2022/05/16 05:19:52;;;;;;;6.57;2.50;;;;;;;;;;4964477;28;20205;-72
2022/05/16 05:22:21;;;;;;;3.33;2.60;;;;;;;;;;4986643;28;20247;-72
2022/05/16 05:24:49;;;;;;;3.70;2.50;;;;;;;;;;4975679;28;20213;-73
2022/05/16 05:27:18;;;;;;;4.27;2.70;;;;;;;;;;4986527;28;20225;-72
2022/05/16 05:29:48;;;;;;;6.43;2.60;;;;;;;;;;4986324;28;20209;-73
2022/05/16 05:32:17;;;;;;;4.03;2.30;;;;;;;;;;4982055;28;20276;-73
2022/05/16 05:34:47;;;;;;;4.50;2.57;;;;;;;;;;4977827;28;20209;-73
2022/05/16 05:37:16;;;;;;;4.47;2.33;;;;;;;;;;4988065;28;20227;-72
2022/05/16 05:39:44;;;;;;;3.73;2.60;;;;;;;;;;4983641;28;20209;-73
2022/05/16 05:42:13;;;;;;;7.47;2.70;;;;;;;;;;4976351;28;20221;-73
2022/05/16 05:44:41;;;;;;;5.17;2.73;;;;;;;;;;4987021;28;20216;-72
2022/05/16 05:47:09;;;;;;;3.83;2.53;;;;;;;;;;4987988;28;20225;-73
2022/05/16 05:49:38;;;;;;;5.60;2.33;;;;;;;;;;4983652;28;20653;-72
2022/05/16 05:52:08;;;;;;;8.70;2.83;;;;;;;;;;4993125;28;20715;-73
2022/05/16 05:54:42;;;;;;;8.57;2.97;;;;;;;;;;4992253;28;20328;-72
2022/05/16 05:57:11;;;;;;;7.03;2.70;;;;;;;;;;4986844;28;20221;-73
2022/05/16 05:59:39;;;;;;;4.27;2.80;;;;;;;;;;4977369;28;20252;-72
2022/05/16 06:02:08;;;;;;;3.63;2.80;;;;;;;;;;4989315;28;20201;-73
2022/05/16 06:04:38;;;;;;;4.07;2.40;;;;;;;;;;4974836;28;20213;-73
2022/05/16 06:07:08;;;;;;;7.20;2.70;;;;;;;;;;4988464;28;20267;-74
2022/05/16 06:09:36;;;;;;;3.23;2.40;;;;;;;;;;4977364;28;20232;-73
2022/05/16 06:12:06;;;;;;;3.37;2.70;;;;;;;;;;4977526;28;20213;-73
2022/05/16 06:14:35;;;;;;;5.23;2.60;;;;;;;;;;4993080;28;20209;-73
2022/05/16 06:17:03;;;;;;;5.27;3.00;;;;;;;;;;4992553;28;20206;-73
2022/05/16 06:19:32;;;;;;;4.60;2.83;;;;;;;;;;4987034;28;20626;-73
2022/05/16 06:22:00;;;;;;;5.07;2.63;;;;;;;;;;4990415;28;20216;-73
2022/05/16 06:27:17;;;;;;;4.70;2.33;;;;;;;;;;4985597;28;20225;-74
2022/05/16 06:29:45;;;;;;;5.00;2.60;;;;;;;;;;4987178;28;20259;-72
2022/05/16 06:32:14;;;;;;;5.77;2.73;;;;;;;;;;4988323;28;20205;-73
2022/05/16 06:34:42;;;;;;;6.40;2.50;;;;;;;;;;4992582;28;20575;-73
2022/05/16 06:37:10;;;;;;;5.77;2.60;;;;;;;;;;4989852;28;20224;-74
2022/05/16 06:39:40;;;;;;;5.27;2.57;;;;;;;;;;4993759;28;20645;-74
2022/05/16 06:42:09;;;;;;;3.80;3.03;;;;;;;;;;4995235;28;20252;-75
2022/05/16 06:44:37;;;;;;;3.70;2.37;;;;;;;;;;4990232;28;20640;-75
2022/05/16 06:47:06;;;;;;;3.30;2.27;;;;;;;;;;4993679;28;20628;-74
2022/05/16 06:49:34;;;;;;;3.67;2.40;;;;;;;;;;4990052;28;20198;-74
2022/05/16 06:52:03;;;;;;;4.43;2.73;;;;;;;;;;4993524;28;20205;-76
2022/05/16 06:54:38;;;;;;;4.60;2.47;;;;;;;;;;4990252;28;20687;-75
2022/05/16 06:57:07;;;;;;;4.95;2.70;;;;;;;;;;4992711;28;20229;-74
2022/05/16 06:59:36;;;;;;;4.67;2.40;;;;;;;;;;4990367;28;20672;-75
2022/05/16 07:02:05;;;;;;;5.85;2.45;;;;;;;;;;4993585;28;20209;-75
2022/05/16 07:04:36;;;;;;;3.88;2.40;;;;;;;;;;4994792;28;20255;-75
2022/05/16 07:07:05;;;;;;;5.50;2.75;;;;;;;;;;4994037;28;20574;-76
2022/05/16 07:09:34;;;;;;;4.63;2.30;;;;;;;;;;4989604;28;20606;-75
2022/05/16 07:12:02;;;;;;;3.63;2.40;;;;;;;;;;4993802;28;20297;-75
2022/05/16 07:14:33;;;;;;;8.05;2.70;;;;;;;;;;4989425;28;20276;-75
2022/05/16 07:17:02;;;;;;;5.35;2.30;;;;;;;;;;4989796;28;20212;-75
2022/05/16 07:19:34;;;;;;;4.20;2.85;;;;;;;;;;4990246;28;20217;-74
2022/05/16 07:22:03;;;;;;;5.15;2.75;;;;;;;;;;4992235;28;20213;-75
2022/05/16 07:24:32;;;;;;;5.03;2.30;;;;;;;;;;4979434;28;20222;-75
2022/05/16 07:29:56;;;;;;;4.30;2.40;;;;;;;;;;4989658;28;20212;-76
2022/05/16 07:32:25;;;;;;;6.15;2.50;;;;;;;;;;4990120;28;20256;-75
2022/05/16 07:34:53;;;;;;;4.68;2.70;;;;;;;;;;4991835;28;20267;-75
2022/05/16 07:37:22;;;;;;;5.15;2.35;;;;;;;;;;4987953;28;20218;-75
2022/05/16 07:39:50;;;;;;;3.75;2.25;;;;;;;;;;4988592;28;20209;-75
2022/05/16 07:42:18;;;;;;;4.45;2.45;;;;;;;;;;4990845;28;20220;-75
2022/05/16 07:44:48;;;;;;;5.22;2.60;;;;;;;;;;4995295;28;20231;-75
2022/05/16 07:47:22;;;;;;;7.38;2.83;;;;;;;;;;4991936;28;20323;-74
2022/05/16 07:49:50;;;;;;;5.85;2.55;;;;;;;;;;4987279;28;20209;-75
2022/05/16 07:52:18;;;;;;;4.97;2.80;;;;;;;;;;4991587;28;20205;-75
2022/05/16 07:54:47;;;;;;;5.22;2.60;;;;;;;;;;4992059;28;20209;-74
2022/05/16 07:57:15;;;;;;;3.53;2.22;;;;;;;;;;4990700;28;20222;-75
2022/05/16 07:59:43;;;;;;;5.30;2.20;;;;;;;;;;4988697;28;20235;-75
2022/05/16 08:02:13;;;;;;;6.25;2.67;;;;;;;;;;4992974;28;20731;-75
2022/05/16 08:04:43;;;;;;;3.80;2.70;;;;;;;;;;4988748;28;20224;-74
2022/05/16 08:07:11;;;;;;;6.32;2.70;;;;;;;;;;4990169;28;20228;-73
2022/05/16 08:12:32;;;;;;;6.28;2.30;;;;;;;;;;4990054;28;20264;-74
2022/05/16 08:15:00;;;;;;;5.30;2.45;;;;;;;;;;4999116;28;20201;-75
2022/05/16 08:17:29;;;;;;;5.22;2.40;;;;;;;;;;4992304;28;20248;-75
2022/05/16 08:20:00;;;;;;;4.60;2.40;;;;;;;;;;4989087;28;20212;-76
2022/05/16 08:22:29;;;;;;;3.90;2.50;;;;;;;;;;4981002;28;20218;-75
2022/05/16 08:24:58;;;;;;;4.70;2.63;;;;;;;;;;4994447;28;20287;-75
2022/05/16 08:27:33;;;;;;;7.68;2.88;;;;;;;;;;4991520;28;20708;-76
2022/05/16 08:30:01;;;;;;;5.90;2.67;;;;;;;;;;4988932;28;20205;-75
2022/05/16 08:32:30;;;;;;;3.97;2.42;;;;;;;;;;4988778;28;20657;-76
2022/05/16 08:35:01;;;;;;;4.75;2.60;;;;;;;;;;4992873;28;20333;-75
2022/05/16 08:40:16;;;;;;;4.15;2.38;;;;;;;;;;4989527;28;20209;-75
2022/05/16 08:42:50;;;;;;;5.25;2.30;;;;;;;;;;4988721;28;20248;-75
2022/05/16 08:45:21;;;;;;;5.68;2.53;;;;;;;;;;4994424;28;20227;-75
2022/05/16 08:47:54;;;;;;;4.55;2.42;;;;;;;;;;4989581;28;20240;-75
2022/05/16 08:50:26;;;;;;;4.50;2.25;;;;;;;;;;4988245;28;20711;-75
2022/05/16 08:52:58;;;;;;;4.63;2.70;;;;;;;;;;4987766;28;20209;-74
2022/05/16 08:55:30;;;;;;;4.88;2.60;;;;;;;;;;4992841;28;20205;-75
2022/05/16 08:58:03;;;;;;;5.55;2.35;;;;;;;;;;4989648;28;20291;-75
2022/05/16 09:00:34;;;;;;;6.82;2.72;;;;;;;;;;4987920;28;20204;-75
2022/05/16 09:03:05;;;;;;;4.82;2.53;;;;;;;;;;4986313;28;20300;-75
2022/05/16 09:05:36;;;;;;;5.65;2.70;;;;;;;;;;4980147;28;20645;-75
2022/05/16 09:08:07;;;;;;;5.90;2.55;;;;;;;;;;4989799;28;20281;-75
2022/05/16 09:10:46;;;;;;;4.60;2.22;;;;;;;;;;4988047;28;20729;-75
2022/05/16 09:13:17;;;;;;;6.93;2.50;;;;;;;;;;4987826;28;20214;-75
2022/05/16 09:15:57;;;;;;;6.13;2.50;;;;;;;;;;4995646;28;20204;-75
2022/05/16 09:18:32;;;;;;;4.95;2.58;;;;;;;;;;4988199;28;20252;-75
2022/05/16 09:21:07;;;;;;;5.65;2.60;;;;;;;;;;4988934;28;20660;-75
2022/05/16 09:23:43;;;;;;;6.32;2.80;;;;;;;;;;4987481;28;20213;-75
2022/05/16 09:26:16;;;;;;;5.82;2.50;;;;;;;;;;4993905;28;20204;-75
2022/05/16 09:28:47;;;;;;;6.55;2.65;;;;;;;;;;4987076;28;20225;-75
2022/05/16 09:31:19;;;;;;;6.85;2.80;;;;;;;;;;4990925;28;20200;-76
2022/05/16 09:33:49;;;;;;;3.90;2.20;;;;;;;;;;4987418;28;20209;-76
2022/05/16 09:36:21;;;;;;;5.70;2.80;;;;;;;;;;4993739;28;20588;-76
2022/05/16 09:38:50;;;;;;;5.68;2.55;;;;;;;;;;4987983;28;20598;-76
2022/05/16 09:41:23;;;;;;;4.45;2.50;;;;;;;;;;4993737;28;20255;-75
2022/05/16 09:43:54;;;;;;;5.72;2.50;;;;;;;;;;4988760;28;20216;-75
2022/05/16 09:46:27;;;;;;;3.67;2.35;;;;;;;;;;4992020;28;20205;-75
2022/05/16 09:49:06;;;;;;;7.05;2.67;;;;;;;;;;4986692;28;20720;-75
2022/05/16 09:51:47;;;;;;;7.35;2.95;;;;;;;;;;4992831;28;20604;-76
2022/05/16 09:54:33;;;;;;;6.30;2.60;;;;;;;;;;4989451;28;20215;-75
2022/05/16 09:57:06;;;;;;;4.57;2.40;;;;;;;;;;4990343;28;20670;-75
2022/05/16 09:59:36;;;;;;;7.65;2.90;;;;;;;;;;4986865;28;20660;-76
2022/05/16 10:02:13;;;;;;;7.32;2.60;;;;;;;;;;4982301;28;20582;-75
2022/05/16 10:04:56;;;;;;;5.10;2.70;;;;;;;;;;4988360;28;20759;-76
2022/05/16 10:07:31;;;;;;;6.47;2.72;;;;;;;;;;4987770;28;20222;-75
2022/05/16 10:10:00;;;;;;;4.38;2.60;;;;;;;;;;4981232;28;20216;-75
2022/05/16 10:12:29;;;;;;;4.00;2.63;;;;;;;;;;4983776;28;20275;-75
2022/05/16 10:14:58;;;;;;;6.35;2.75;;;;;;;;;;4988029;28;20257;-75
2022/05/16 10:17:29;;;;;;;4.45;2.67;;;;;;;;;;4992464;28;20235;-75
2022/05/16 10:20:00;;;;;;;7.05;2.67;;;;;;;;;;4989326;28;20264;-75
2022/05/16 10:22:30;;;;;;;6.32;2.90;;;;;;;;;;4992004;28;20217;-75
2022/05/16 10:25:21;;;;;;;4.95;2.60;;;;;;;;;;4994291;28;20263;-76
2022/05/16 10:27:52;;;;;;;7.78;2.78;;;;;;;;;;4992877;28;20798;-76
2022/05/16 10:30:24;;;;;;;6.30;2.70;;;;;;;;;;4996786;28;20251;-75
2022/05/16 10:35:44;;;;;;;5.13;2.83;;;;;;;;;;4995115;28;20665;-75
2022/05/16 10:38:17;;;;;;;3.83;2.58;;;;;;;;;;4986754;28;20225;-75
2022/05/16 10:40:50;;;;;;;6.05;3.08;;;;;;;;;;4989968;28;20208;-75
2022/05/16 10:43:25;;;;;;;4.78;2.90;;;;;;;;;;4990868;28;20209;-75
2022/05/16 10:45:57;;;;;;;5.70;2.40;;;;;;;;;;4987124;28;20275;-75
2022/05/16 10:48:30;;;;;;;6.53;2.80;;;;;;;;;;4993651;28;20229;-75
2022/05/16 10:51:02;;;;;;;6.18;2.90;;;;;;;;;;4991745;28;20217;-75
2022/05/16 10:53:33;;;;;;;5.65;2.60;;;;;;;;;;4987283;28;20214;-75
2022/05/16 10:56:08;;;;;;;6.72;3.00;;;;;;;;;;4996541;28;20197;-75
2022/05/16 10:58:42;;;;;;;5.28;2.63;;;;;;;;;;4991442;28;20259;-75
2022/05/16 11:01:12;;;;;;;6.15;2.72;;;;;;;;;;4977374;28;20214;-75
2022/05/16 11:03:52;;;;;;;4.07;2.63;;;;;;;;;;4986140;28;20205;-75
2022/05/16 11:06:30;;;;;;;6.07;3.10;;;;;;;;;;4996317;28;20228;-76
2022/05/16 11:09:03;;;;;;;6.75;3.30;;;;;;;;;;4989127;28;20237;-75
2022/05/16 11:11:38;;;;;;;4.63;2.90;;;;;;;;;;4994216;28;20201;-75
2022/05/16 11:14:10;;;;;;;4.72;3.10;;;;;;;;;;4986870;28;20209;-75
2022/05/16 11:16:39;;;;;;;7.15;3.05;;;;;;;;;;4986810;28;20201;-75
2022/05/16 11:19:18;;;;;;;5.50;2.92;;;;;;;;;;4989894;28;20210;-75
2022/05/16 11:21:49;;;;;;;5.32;3.00;;;;;;;;;;4978928;28;20258;-74
2022/05/16 11:24:26;;;;;;;6.75;2.80;;;;;;;;;;4988317;28;20608;-75
2022/05/16 11:26:59;;;;;;;5.47;3.03;;;;;;;;;;4994363;28;20232;-73
2022/05/16 11:29:39;;;;;;;7.28;3.00;;;;;;;;;;4982089;28;20297;-74
2022/05/16 11:32:11;;;;;;;4.68;2.70;;;;;;;;;;4992089;28;20201;-74
2022/05/16 11:34:46;;;;;;;4.85;3.00;;;;;;;;;;4996073;28;20228;-75
2022/05/16 11:37:19;;;;;;;6.15;3.15;;;;;;;;;;4992058;28;20216;-74
2022/05/16 11:39:51;;;;;;;5.82;2.88;;;;;;;;;;4989807;28;20260;-75
2022/05/16 11:42:24;;;;;;;6.70;2.72;;;;;;;;;;4990640;28;20221;-75
2022/05/16 11:44:57;;;;;;;8.52;2.80;;;;;;;;;;4989530;28;20216;-74
2022/05/16 11:47:30;;;;;;;5.40;2.53;;;;;;;;;;4990780;28;20225;-75
2022/05/16 11:50:22;;;;;;;4.80;3.00;;;;;;;;;;4989340;28;20210;-74
2022/05/16 11:53:11;;;;;;;3.63;2.40;;;;;;;;;;4989567;28;20553;-73
2022/05/16 12:01:30;;;;;;;3.33;2.60;;;;;;;;;;4992552;28;20256;-73
2022/05/16 12:04:05;;;;;;;6.38;2.88;;;;;;;;;;4987556;28;20201;-73
2022/05/16 12:06:35;;;;;;;5.88;3.00;;;;;;;;;;4984351;28;20225;-74
2022/05/16 12:09:15;;;;;;;6.90;2.75;;;;;;;;;;4988892;28;20232;-73
2022/05/16 12:11:54;;;;;;;7.35;3.00;;;;;;;;;;4988288;28;20220;-74
2022/05/16 12:14:32;;;;;;;5.70;2.50;;;;;;;;;;4991449;28;20657;-74
2022/05/16 12:17:02;;;;;;;4.35;2.30;;;;;;;;;;4987580;28;20209;-74
2022/05/16 12:19:37;;;;;;;4.45;2.60;;;;;;;;;;4990017;28;20264;-73
2022/05/16 12:22:07;;;;;;;4.88;2.67;;;;;;;;;;4984744;28;20229;-73
2022/05/16 12:24:44;;;;;;;5.90;2.80;;;;;;;;;;4989668;28;20205;-73
2022/05/16 12:27:29;;;;;;;10.10;3.20;;;;;;;;;;4988204;28;20244;-74
2022/05/16 12:30:01;;;;;;;4.82;2.80;;;;;;;;;;4986089;28;20201;-73
2022/05/16 12:32:48;;;;;;;5.85;2.83;;;;;;;;;;4989908;28;20201;-74
2022/05/16 12:35:34;;;;;;;5.43;2.70;;;;;;;;;;4989465;28;20212;-74
2022/05/16 12:38:03;;;;;;;5.00;2.72;;;;;;;;;;4989852;28;20597;-73
2022/05/16 12:40:38;;;;;;;5.25;3.00;;;;;;;;;;4985781;28;20213;-73
2022/05/16 12:43:17;;;;;;;7.32;2.85;;;;;;;;;;4984265;28;20673;-73
2022/05/16 12:45:56;;;;;;;5.28;2.60;;;;;;;;;;4985877;28;20228;-73
2022/05/16 12:48:40;;;;;;;4.70;3.00;;;;;;;;;;4987973;28;20224;-74
2022/05/16 12:51:28;;;;;;;6.20;3.38;;;;;;;;;;4990575;28;20205;-73
2022/05/16 12:54:07;;;;;;;5.32;2.92;;;;;;;;;;4990276;28;20201;-73
2022/05/16 12:56:40;;;;;;;9.32;2.90;;;;;;;;;;4985686;28;20202;-73
2022/05/16 12:59:10;;;;;;;5.45;2.78;;;;;;;;;;4991504;28;20607;-73
2022/05/16 13:01:43;;;;;;;7.57;3.05;;;;;;;;;;4980672;28;20202;-73
2022/05/16 13:04:18;;;;;;;4.63;2.95;;;;;;;;;;4986776;28;20548;-73
2022/05/16 13:06:50;;;;;;;4.97;3.17;;;;;;;;;;4992483;28;20229;-73
2022/05/16 13:09:30;;;;;;;5.60;3.10;;;;;;;;;;4981969;28;20200;-73
2022/05/16 13:12:02;;;;;;;4.85;3.03;;;;;;;;;;4979398;28;20580;-73
2022/05/16 13:14:35;;;;;;;4.90;2.90;;;;;;;;;;4978674;28;20206;-73
2022/05/16 13:17:07;;;;;;;7.07;3.30;;;;;;;;;;4984726;28;20714;-74
2022/05/16 13:19:38;;;;;;;5.88;2.92;;;;;;;;;;4983127;28;20224;-73
2022/05/16 13:22:07;;;;;;;5.82;3.20;;;;;;;;;;4990633;28;20267;-73
2022/05/16 13:24:36;;;;;;;5.80;3.05;;;;;;;;;;4991557;28;20251;-73
2022/05/16 13:30:07;;;;;;;6.45;3.53;;;;;;;;;;4986645;28;20201;-74
2022/05/16 13:32:38;;;;;;;4.47;2.92;;;;;;;;;;4987967;28;20206;-74
2022/05/16 13:35:08;;;;;;;7.55;2.95;;;;;;;;;;4993520;28;20205;-74
2022/05/16 13:37:42;;;;;;;5.38;3.20;;;;;;;;;;4988639;28;20221;-74
2022/05/16 13:40:17;;;;;;;5.55;3.35;;;;;;;;;;4987750;28;20204;-74
2022/05/16 13:42:46;;;;;;;8.43;3.47;;;;;;;;;;4982929;28;20209;-74
2022/05/16 13:45:15;;;;;;;5.18;3.25;;;;;;;;;;4988614;28;20266;-74
2022/05/16 13:47:45;;;;;;;7.50;3.33;;;;;;;;;;4979472;28;20660;-74
2022/05/16 13:50:23;;;;;;;7.22;3.15;;;;;;;;;;4983311;28;20263;-74
2022/05/16 13:52:52;;;;;;;5.25;3.20;;;;;;;;;;4983521;28;20293;-74
2022/05/16 13:55:29;;;;;;;8.63;3.20;;;;;;;;;;4981823;28;20202;-75
2022/05/16 13:58:05;;;;;;;4.55;3.08;;;;;;;;;;4977517;28;20784;-73
2022/05/16 14:00:37;;;;;;;8.32;3.42;;;;;;;;;;4982082;28;20206;-74
2022/05/16 14:03:11;;;;;;;7.45;3.42;;;;;;;;;;4979682;28;20197;-74
2022/05/16 14:05:43;;;;;;;7.55;3.60;;;;;;;;;;4985555;28;20275;-74
2022/05/16 14:08:25;;;;;;;7.57;3.55;;;;;;;;;;4980883;28;20233;-74
2022/05/16 14:10:55;;;;;;;6.10;3.70;;;;;;;;;;4984483;28;20205;-74
2022/05/16 14:13:25;;;;;;;6.47;3.45;;;;;;;;;;4986341;28;20216;-75
2022/05/16 14:15:55;;;;;;;6.38;3.17;;;;;;;;;;4989429;28;20696;-75
2022/05/16 14:18:32;;;;;;;8.40;3.58;;;;;;;;;;4982805;28;20233;-74
2022/05/16 14:21:05;;;;;;;9.18;3.40;;;;;;;;;;4982525;28;20269;-74
2022/05/16 14:23:36;;;;;;;6.57;3.42;;;;;;;;;;4988385;28;20650;-74
2022/05/16 14:26:17;;;;;;;6.05;3.33;;;;;;;;;;4976580;28;20232;-75
2022/05/16 14:28:50;;;;;;;6.15;3.47;;;;;;;;;;4985812;28;20574;-75
2022/05/16 14:31:24;;;;;;;5.85;3.40;;;;;;;;;;4991104;28;20292;-75
2022/05/16 14:33:59;;;;;;;7.32;3.53;;;;;;;;;;4970606;28;20210;-74
2022/05/16 14:36:37;;;;;;;8.73;3.40;;;;;;;;;;4979962;28;20202;-74
2022/05/16 14:39:15;;;;;;;6.68;3.40;;;;;;;;;;4984054;28;20221;-74
2022/05/16 14:41:55;;;;;;;6.50;3.75;;;;;;;;;;4977438;28;20213;-74
2022/05/16 14:44:34;;;;;;;7.43;3.15;;;;;;;;;;4973987;28;20209;-74
2022/05/16 14:47:23;;;;;;;6.57;3.28;;;;;;;;;;4978214;28;20305;-74
2022/05/16 14:49:53;;;;;;;7.18;3.42;;;;;;;;;;4990130;28;20726;-74
2022/05/16 14:52:25;;;;;;;7.25;3.47;;;;;;;;;;4978343;28;20205;-74
2022/05/16 14:55:03;;;;;;;7.45;3.28;;;;;;;;;;4984371;28;20288;-73
2022/05/16 14:57:32;;;;;;;5.57;3.25;;;;;;;;;;4976799;28;20572;-74
2022/05/16 15:05:46;;;;;;;7.10;3.45;;;;;;;;;;4988103;28;20212;-73
2022/05/16 15:08:17;;;;;;;7.65;3.35;;;;;;;;;;4981104;28;20702;-72
2022/05/16 15:10:46;;;;;;;5.53;3.63;;;;;;;;;;4989838;28;20205;-74
2022/05/16 15:13:14;;;;;;;6.88;3.65;;;;;;;;;;4986029;28;20218;-73
2022/05/16 15:15:43;;;;;;;7.60;3.70;;;;;;;;;;4983948;28;20260;-74
2022/05/16 15:18:12;;;;;;;5.68;3.50;;;;;;;;;;4986433;28;20304;-73
2022/05/16 15:20:40;;;;;;;5.40;3.50;;;;;;;;;;4978367;28;20252;-73
2022/05/16 15:23:11;;;;;;;7.28;4.05;;;;;;;;;;4984220;28;20661;-73
2022/05/16 15:25:39;;;;;;;11.50;4.20;;;;;;;;;;4986776;28;20274;-72
2022/05/16 15:28:09;;;;;;;8.88;4.00;;;;;;;;;;4978069;28;20233;-73
2022/05/16 15:30:47;;;;;;;6.07;4.10;;;;;;;;;;4992269;28;20212;-75
2022/05/16 15:33:15;;;;;;;7.63;4.25;;;;;;;;;;4986768;28;20205;-73
2022/05/16 15:35:45;;;;;;;8.52;4.00;;;;;;;;;;4981665;28;20209;-73
2022/05/16 15:38:15;;;;;;;8.48;3.65;;;;;;;;;;4984728;28;20640;-73
2022/05/16 15:40:44;;;;;;;7.97;4.13;;;;;;;;;;4992930;28;20680;-73
2022/05/16 15:43:13;;;;;;;11.35;4.30;;;;;;;;;;4982755;28;20206;-73
2022/05/16 15:45:43;;;;;;;6.80;4.07;;;;;;;;;;4990935;28;20673;-73
2022/05/16 15:48:13;;;;;;;6.70;3.80;;;;;;;;;;4985073;28;20221;-74
2022/05/16 15:50:42;;;;;;;7.78;3.83;;;;;;;;;;4994981;28;20204;-74